Time;durP1;ratioP1;P1;durP2;ratioP2;P2;SDS_P1;SDS_P2;PMS_P1;PMS_P2;Temp;Humidity;BMP_temperature;BMP_pressure;BME280_temperature;BME280_humidity;BME280_pressure;Samples;Min_cycle;Max_cycle;Signal;HPM_P1;HPM_P2
2022/03/11 00:02:02;;;;;;;7.93;3.47;;;-1.40;99.80;;;;;;5056096;28;20028;-68
2022/03/11 00:04:28;;;;;;;7.28;3.55;;;-1.40;99.80;;;;;;5055635;28;20082;-68
2022/03/11 00:06:54;;;;;;;5.68;2.55;;;-1.40;99.70;;;;;;5055618;28;20125;-68
2022/03/11 00:09:19;;;;;;;7.35;2.83;;;-1.40;99.80;;;;;;5055921;28;20319;-68
2022/03/11 00:11:45;;;;;;;4.85;2.53;;;-1.40;99.90;;;;;;5055627;28;20056;-68
2022/03/11 00:14:10;;;;;;;7.20;2.90;;;-1.50;99.90;;;;;;5055541;28;20068;-68
2022/03/11 00:16:36;;;;;;;5.03;2.50;;;-1.60;99.90;;;;;;5055599;28;20103;-68
2022/03/11 00:19:02;;;;;;;6.68;2.95;;;-1.70;99.90;;;;;;5055944;28;20061;-68
2022/03/11 00:21:28;;;;;;;6.47;2.88;;;-1.70;99.90;;;;;;5054105;28;20060;-68
2022/03/11 00:23:53;;;;;;;6.97;2.95;;;-1.70;99.90;;;;;;5055366;28;20029;-68
2022/03/11 00:26:19;;;;;;;5.25;2.83;;;-1.70;99.90;;;;;;5055355;28;20469;-68
2022/03/11 00:28:45;;;;;;;5.47;2.70;;;-1.80;99.90;;;;;;5055131;28;20033;-69
2022/03/11 00:31:10;;;;;;;6.03;2.90;;;-1.70;99.90;;;;;;5055321;28;20068;-69
2022/03/11 00:33:36;;;;;;;6.00;3.05;;;-1.70;99.90;;;;;;5055318;28;20435;-69
2022/03/11 00:36:02;;;;;;;6.88;2.95;;;-1.70;99.90;;;;;;5055341;28;20025;-69
2022/03/11 00:38:28;;;;;;;5.20;2.47;;;-1.70;99.90;;;;;;5055114;28;20025;-69
2022/03/11 00:40:56;;;;;;;5.47;2.88;;;-1.70;99.90;;;;;;5055095;28;20024;-68
2022/03/11 00:43:26;;;;;;;7.13;2.83;;;-1.70;99.90;;;;;;5055120;28;20025;-68
2022/03/11 00:45:52;;;;;;;8.40;3.42;;;-1.80;99.80;;;;;;5055482;28;20405;-68
2022/03/11 00:48:18;;;;;;;5.80;2.92;;;-1.80;99.90;;;;;;5055336;28;20096;-69
2022/03/11 00:50:44;;;;;;;6.78;2.63;;;-1.80;99.80;;;;;;5055640;28;20024;-69
2022/03/11 00:53:10;;;;;;;5.82;2.85;;;-1.80;99.60;;;;;;5055375;28;20036;-68
2022/03/11 00:55:36;;;;;;;7.05;3.22;;;-1.90;99.60;;;;;;5055296;28;20021;-68
2022/03/11 00:58:01;;;;;;;7.50;2.95;;;-1.90;99.70;;;;;;5055257;28;20041;-68
2022/03/11 01:00:27;;;;;;;8.68;3.75;;;-1.90;99.60;;;;;;5055452;28;20021;-68
2022/03/11 01:02:53;;;;;;;7.97;3.15;;;-1.90;99.80;;;;;;5054856;28;20499;-68
2022/03/11 01:05:22;;;;;;;6.50;2.95;;;-2.00;99.90;;;;;;5055215;28;20362;-68
2022/03/11 01:07:48;;;;;;;6.90;3.17;;;-2.00;99.90;;;;;;5055105;28;20028;-68
2022/03/11 01:10:14;;;;;;;6.63;2.70;;;-2.00;99.90;;;;;;5053757;28;20108;-69
2022/03/11 01:12:40;;;;;;;6.38;3.30;;;-2.10;99.90;;;;;;5054909;28;20100;-68
2022/03/11 01:15:07;;;;;;;6.97;3.67;;;-2.10;99.90;;;;;;5055283;28;20394;-68
2022/03/11 01:17:32;;;;;;;9.18;3.60;;;-2.10;99.90;;;;;;5055193;28;20024;-68
2022/03/11 01:19:58;;;;;;;7.22;3.80;;;-2.10;99.90;;;;;;5055108;28;20029;-68
2022/03/11 01:22:24;;;;;;;8.45;4.15;;;-2.10;99.90;;;;;;5054777;28;20052;-68
2022/03/11 01:24:50;;;;;;;7.22;4.03;;;-2.10;99.90;;;;;;5055038;28;20025;-68
2022/03/11 01:27:15;;;;;;;9.63;4.32;;;-2.20;99.90;;;;;;5055295;28;20466;-68
2022/03/11 01:29:41;;;;;;;8.73;3.80;;;-2.30;99.90;;;;;;5054581;28;20021;-68
2022/03/11 01:32:07;;;;;;;8.45;3.25;;;-2.40;99.90;;;;;;5054548;28;20021;-68
2022/03/11 01:34:33;;;;;;;8.23;3.40;;;-2.40;99.90;;;;;;5054605;28;20561;-68
2022/03/11 01:36:58;;;;;;;7.45;3.10;;;-2.40;99.90;;;;;;5055053;28;20060;-68
2022/03/11 01:39:24;;;;;;;7.55;3.65;;;-2.40;99.90;;;;;;5054423;28;20115;-69
2022/03/11 01:41:50;;;;;;;8.75;3.42;;;-2.40;99.90;;;;;;5054986;28;20029;-69
2022/03/11 01:44:16;;;;;;;8.55;3.38;;;-2.40;99.90;;;;;;5054570;28;20122;-69
2022/03/11 01:46:42;;;;;;;7.55;3.10;;;-2.30;99.90;;;;;;5054910;28;20049;-68
2022/03/11 01:49:09;;;;;;;5.43;2.40;;;-2.30;99.90;;;;;;5054291;28;20421;-68
2022/03/11 01:51:38;;;;;;;6.32;2.55;;;-2.30;99.90;;;;;;5053019;28;20477;-69
2022/03/11 01:54:03;;;;;;;7.70;3.63;;;-2.30;99.90;;;;;;5054175;28;20075;-68
2022/03/11 01:56:31;;;;;;;6.97;3.40;;;-2.40;99.90;;;;;;5053986;28;20033;-69
2022/03/11 01:58:57;;;;;;;8.63;3.75;;;-2.50;99.90;;;;;;5054076;28;20094;-69
2022/03/11 02:01:24;;;;;;;8.25;3.38;;;-2.50;99.90;;;;;;5054068;28;20016;-68
2022/03/11 02:03:50;;;;;;;7.65;3.60;;;-2.50;99.90;;;;;;5054219;28;20052;-68
2022/03/11 02:06:18;;;;;;;6.60;3.53;;;-2.60;99.90;;;;;;5052760;28;20025;-68
2022/03/11 02:08:44;;;;;;;7.50;3.53;;;-2.60;99.90;;;;;;5054142;28;20017;-68
2022/03/11 02:11:13;;;;;;;6.88;3.47;;;-2.60;99.90;;;;;;5054165;28;20442;-68
2022/03/11 02:13:59;;;;;;;5.88;3.50;;;-2.60;99.90;;;;;;5053661;28;20026;-68
2022/03/11 02:16:27;;;;;;;5.80;2.97;;;-2.60;99.90;;;;;;5052410;28;20032;-68
2022/03/11 02:18:53;;;;;;;6.47;3.05;;;-2.60;99.90;;;;;;5053998;28;20078;-68
2022/03/11 02:21:20;;;;;;;6.03;3.00;;;-2.70;99.90;;;;;;5053744;28;20033;-68
2022/03/11 02:23:58;;;;;;;4.93;2.67;;;-2.70;99.90;;;;;;5053628;28;20074;-68
2022/03/11 02:26:26;;;;;;;7.28;3.00;;;-2.70;99.90;;;;;;5053951;28;20373;-68
2022/03/11 02:28:55;;;;;;;5.07;2.70;;;-2.70;99.90;;;;;;5053529;28;20017;-69
2022/03/11 02:31:27;;;;;;;7.72;3.38;;;-2.80;99.90;;;;;;5053545;28;20054;-68
2022/03/11 02:33:53;;;;;;;6.78;3.28;;;-2.80;99.90;;;;;;5053869;28;20051;-68
2022/03/11 02:36:18;;;;;;;10.98;3.38;;;-2.80;99.90;;;;;;5052313;28;20024;-68
2022/03/11 02:38:45;;;;;;;6.28;3.00;;;-2.80;99.90;;;;;;5053667;28;20028;-68
2022/03/11 02:41:10;;;;;;;8.63;3.03;;;-2.90;99.90;;;;;;5053464;28;20035;-68
2022/03/11 02:43:36;;;;;;;11.90;3.33;;;-2.80;99.90;;;;;;5053617;28;20451;-68
2022/03/11 02:46:02;;;;;;;6.72;3.20;;;-2.90;99.90;;;;;;5053471;28;20021;-69
2022/03/11 02:48:29;;;;;;;6.72;3.00;;;-2.90;99.90;;;;;;5053226;28;20021;-68
2022/03/11 02:50:55;;;;;;;7.18;3.03;;;-3.00;99.90;;;;;;5053241;28;20025;-68
2022/03/11 02:53:21;;;;;;;6.97;3.10;;;-3.00;99.90;;;;;;5053460;28;20072;-68
2022/03/11 02:55:47;;;;;;;7.95;3.15;;;-3.00;99.90;;;;;;5051912;28;20125;-68
2022/03/11 02:58:13;;;;;;;7.72;3.28;;;-3.10;99.90;;;;;;5053075;28;20111;-68
2022/03/11 03:00:39;;;;;;;9.25;3.50;;;-3.10;99.90;;;;;;5053116;28;20031;-68
2022/03/11 03:03:05;;;;;;;9.60;4.18;;;-3.20;99.90;;;;;;5053641;28;20067;-68
2022/03/11 03:05:30;;;;;;;12.75;4.85;;;-3.20;99.90;;;;;;5053639;28;20067;-68
2022/03/11 03:07:56;;;;;;;11.35;4.82;;;-3.20;99.90;;;;;;5053114;28;20017;-68
2022/03/11 03:10:22;;;;;;;10.80;4.68;;;-3.20;99.90;;;;;;5053015;28;20021;-68
2022/03/11 03:12:48;;;;;;;10.88;4.28;;;-3.20;99.90;;;;;;5053328;28;20358;-68
2022/03/11 03:15:14;;;;;;;7.80;3.72;;;-3.20;99.90;;;;;;5053047;28;20078;-68
2022/03/11 03:17:40;;;;;;;10.60;3.28;;;-3.20;99.90;;;;;;5052994;28;20384;-68
2022/03/11 03:20:08;;;;;;;7.53;3.50;;;-3.20;99.90;;;;;;5053169;28;20029;-68
2022/03/11 03:22:34;;;;;;;5.38;2.70;;;-3.20;99.90;;;;;;5053163;28;20025;-68
2022/03/11 03:25:00;;;;;;;6.38;3.00;;;-3.20;99.90;;;;;;5052928;28;20096;-68
2022/03/11 03:27:26;;;;;;;6.40;3.13;;;-3.30;99.90;;;;;;5056707;28;20104;-68
2022/03/11 03:29:51;;;;;;;7.78;3.22;;;-3.40;99.90;;;;;;5056870;28;20024;-68
2022/03/11 03:32:17;;;;;;;6.13;2.80;;;-3.40;99.90;;;;;;5056892;28;20029;-68
2022/03/11 03:34:43;;;;;;;6.05;3.08;;;-3.40;99.90;;;;;;5056845;28;20037;-68
2022/03/11 03:37:11;;;;;;;6.25;2.83;;;-3.40;99.90;;;;;;5057550;28;20025;-68
2022/03/11 03:39:38;;;;;;;5.85;2.70;;;-3.40;99.90;;;;;;5056907;28;20421;-68
2022/03/11 03:42:04;;;;;;;5.72;2.85;;;-3.50;99.90;;;;;;5056981;28;20420;-68
2022/03/11 03:44:30;;;;;;;5.18;2.58;;;-3.50;99.90;;;;;;5056875;28;20362;-68
2022/03/11 03:46:56;;;;;;;7.88;2.90;;;-3.50;99.90;;;;;;5056649;28;20053;-68
2022/03/11 03:49:22;;;;;;;6.28;2.55;;;-3.60;99.90;;;;;;5056525;28;20171;-68
2022/03/11 03:51:48;;;;;;;5.45;2.55;;;-3.60;99.90;;;;;;5056605;28;20047;-69
2022/03/11 03:54:14;;;;;;;5.78;2.60;;;-3.60;99.90;;;;;;5056537;28;20017;-68
2022/03/11 03:56:42;;;;;;;5.05;2.53;;;-3.70;99.90;;;;;;5056406;28;20032;-68
2022/03/11 03:59:10;;;;;;;6.30;2.58;;;-3.80;99.90;;;;;;5056634;28;20029;-68
2022/03/11 04:01:40;;;;;;;7.82;3.60;;;-3.80;99.90;;;;;;5056365;28;20035;-68
2022/03/11 04:04:06;;;;;;;10.98;4.45;;;-3.90;99.90;;;;;;5056224;28;20075;-68
2022/03/11 04:06:37;;;;;;;10.90;4.63;;;-4.00;99.90;;;;;;5056262;28;20027;-68
2022/03/11 04:09:04;;;;;;;7.77;3.37;;;-4.00;99.90;;;;;;5056175;28;20025;-68
2022/03/11 04:11:30;;;;;;;5.88;3.08;;;-4.00;99.90;;;;;;5056461;28;20048;-68
2022/03/11 04:13:57;;;;;;;7.63;3.60;;;-4.00;99.90;;;;;;5056075;28;20468;-68
2022/03/11 04:16:23;;;;;;;7.40;2.75;;;-4.00;99.90;;;;;;5056101;28;20079;-68
2022/03/11 04:18:49;;;;;;;6.93;2.35;;;-4.00;99.90;;;;;;5056319;28;20063;-68
2022/03/11 04:21:17;;;;;;;5.07;2.78;;;-4.00;99.90;;;;;;5056284;28;20040;-68
2022/03/11 04:23:45;;;;;;;5.90;2.67;;;-4.00;99.90;;;;;;5055962;28;20361;-68
2022/03/11 04:26:11;;;;;;;7.82;3.80;;;-4.10;99.90;;;;;;5056000;28;20025;-68
2022/03/11 04:28:37;;;;;;;8.48;3.25;;;-4.10;99.90;;;;;;5054532;28;20366;-68
2022/03/11 04:31:04;;;;;;;7.55;3.28;;;-4.10;99.90;;;;;;5054515;28;20362;-68
2022/03/11 04:33:30;;;;;;;8.27;3.47;;;-4.10;99.90;;;;;;5055775;28;20104;-68
2022/03/11 04:35:56;;;;;;;6.78;3.50;;;-4.10;99.90;;;;;;5056006;28;20063;-68
2022/03/11 04:38:21;;;;;;;5.20;2.80;;;-4.10;99.90;;;;;;5054987;28;20028;-68
2022/03/11 04:40:47;;;;;;;6.65;3.10;;;-4.10;99.90;;;;;;5055590;28;20067;-68
2022/03/11 04:43:13;;;;;;;5.97;3.10;;;-4.10;99.90;;;;;;5056055;28;20463;-68
2022/03/11 04:45:39;;;;;;;8.40;3.60;;;-4.20;99.90;;;;;;5055549;28;20048;-68
2022/03/11 04:48:05;;;;;;;9.20;4.78;;;-4.20;99.90;;;;;;5054469;28;20470;-68
2022/03/11 04:50:31;;;;;;;7.45;3.92;;;-4.30;99.90;;;;;;5055402;28;20021;-69
2022/03/11 04:52:56;;;;;;;5.00;3.10;;;-4.30;99.90;;;;;;5055367;28;20020;-68
2022/03/11 04:55:22;;;;;;;7.68;3.20;;;-4.30;99.90;;;;;;5055882;28;20108;-69
2022/03/11 04:57:48;;;;;;;5.40;2.72;;;-4.30;99.90;;;;;;5055159;28;20493;-69
2022/03/11 05:00:14;;;;;;;7.45;3.20;;;-4.30;99.90;;;;;;5055249;28;20036;-69
2022/03/11 05:02:44;;;;;;;7.20;3.25;;;-4.40;99.90;;;;;;5055429;28;20095;-70
2022/03/11 05:05:11;;;;;;;7.90;3.65;;;-4.40;99.90;;;;;;5055184;28;20464;-70
2022/03/11 05:07:38;;;;;;;5.85;2.95;;;-4.40;99.90;;;;;;5055139;28;20020;-70
2022/03/11 05:10:05;;;;;;;6.85;3.33;;;-4.30;99.90;;;;;;5055275;28;20470;-70
2022/03/11 05:12:31;;;;;;;6.00;3.10;;;-4.40;99.90;;;;;;5053709;28;20116;-70
2022/03/11 05:14:57;;;;;;;6.50;2.78;;;-4.40;99.90;;;;;;5053724;28;20030;-70
2022/03/11 05:17:23;;;;;;;6.10;2.47;;;-4.30;99.90;;;;;;5055138;28;20397;-70
2022/03/11 05:19:49;;;;;;;5.75;2.53;;;-4.30;99.90;;;;;;5054845;28;20025;-70
2022/03/11 05:22:16;;;;;;;7.28;2.83;;;-4.40;99.90;;;;;;5054872;28;20032;-69
2022/03/11 05:24:42;;;;;;;9.30;3.08;;;-4.50;99.90;;;;;;5054724;28;20025;-69
2022/03/11 05:27:07;;;;;;;7.65;3.00;;;-4.40;99.90;;;;;;5054708;28;20535;-70
2022/03/11 05:29:36;;;;;;;5.93;3.17;;;-4.50;99.90;;;;;;5054667;28;20100;-70
2022/03/11 05:32:03;;;;;;;7.03;3.20;;;-4.50;99.90;;;;;;5053416;28;20024;-70
2022/03/11 05:34:29;;;;;;;7.43;2.70;;;-4.50;99.90;;;;;;5054658;28;20075;-69
2022/03/11 05:36:54;;;;;;;8.45;3.20;;;-4.50;99.90;;;;;;5054563;28;20029;-70
2022/03/11 05:39:20;;;;;;;8.90;3.40;;;-4.60;99.90;;;;;;5053437;28;20497;-70
2022/03/11 05:41:46;;;;;;;7.38;3.50;;;-4.60;99.90;;;;;;5054547;28;20511;-70
2022/03/11 05:44:13;;;;;;;6.47;3.05;;;-4.60;99.90;;;;;;5054400;28;20600;-70
2022/03/11 05:46:38;;;;;;;5.00;2.72;;;-4.50;99.90;;;;;;5054419;28;20074;-70
2022/03/11 05:49:04;;;;;;;6.40;2.92;;;-4.50;99.90;;;;;;5053399;28;20021;-70
2022/03/11 05:51:30;;;;;;;6.13;3.30;;;-4.60;99.90;;;;;;5052967;28;20584;-70
2022/03/11 05:53:56;;;;;;;7.72;3.38;;;-4.60;99.90;;;;;;5054533;28;20112;-69
2022/03/11 05:56:21;;;;;;;8.75;4.47;;;-4.70;99.90;;;;;;5054055;28;20029;-70
2022/03/11 05:58:49;;;;;;;61.75;23.77;;;-4.70;99.90;;;;;;5052869;28;20035;-70
2022/03/11 06:01:18;;;;;;;47.70;20.95;;;-4.70;99.90;;;;;;5054068;28;20025;-70
2022/03/11 06:03:46;;;;;;;37.85;14.40;;;-4.70;99.90;;;;;;5053956;28;20099;-70
2022/03/11 06:06:12;;;;;;;26.20;11.15;;;-4.80;99.90;;;;;;5054013;28;20021;-70
2022/03/11 06:08:38;;;;;;;9.00;4.18;;;-4.80;99.90;;;;;;5054271;28;20496;-69
2022/03/11 06:11:04;;;;;;;8.30;3.85;;;-4.90;99.90;;;;;;5054156;28;20029;-70
2022/03/11 06:13:29;;;;;;;7.55;3.80;;;-4.90;99.90;;;;;;5054209;28;20036;-70
2022/03/11 06:15:55;;;;;;;9.13;3.75;;;-4.90;99.90;;;;;;5054223;28;20025;-70
2022/03/11 06:18:21;;;;;;;13.98;4.78;;;-5.00;99.90;;;;;;5053804;28;20029;-70
2022/03/11 06:20:47;;;;;;;13.32;4.47;;;-5.00;99.90;;;;;;5052477;28;20025;-70
2022/03/11 06:23:13;;;;;;;10.35;4.80;;;-5.00;99.90;;;;;;5054274;28;20487;-70
2022/03/11 06:25:39;;;;;;;15.20;5.38;;;-4.90;99.90;;;;;;5053671;28;20021;-70
2022/03/11 06:28:05;;;;;;;17.10;6.15;;;-4.80;99.90;;;;;;5053612;28;20097;-70
2022/03/11 06:30:30;;;;;;;14.15;4.95;;;-4.80;99.90;;;;;;5052186;28;20056;-70
2022/03/11 06:32:56;;;;;;;11.18;5.07;;;-4.80;99.90;;;;;;5054112;28;20116;-70
2022/03/11 06:35:22;;;;;;;7.72;4.18;;;-4.70;99.90;;;;;;5055929;28;20104;-69
2022/03/11 06:37:52;;;;;;;8.85;3.97;;;-4.70;99.90;;;;;;5064510;28;20028;-69
2022/03/11 06:40:19;;;;;;;8.27;3.47;;;-4.60;99.90;;;;;;5073183;28;20024;-70
2022/03/11 06:42:47;;;;;;;6.03;2.88;;;-4.60;99.90;;;;;;5073488;28;20040;-70
2022/03/11 06:45:14;;;;;;;7.13;3.55;;;-4.60;99.90;;;;;;5068661;28;20021;-70
2022/03/11 06:47:40;;;;;;;8.25;3.70;;;-4.60;99.90;;;;;;5066778;28;20035;-70
2022/03/11 06:50:07;;;;;;;8.00;3.55;;;-4.50;99.90;;;;;;5072211;28;20021;-70
2022/03/11 06:52:33;;;;;;;6.35;3.45;;;-4.50;99.90;;;;;;5073300;28;20536;-70
2022/03/11 06:54:59;;;;;;;9.75;3.55;;;-4.40;99.90;;;;;;5067944;28;20104;-70
2022/03/11 06:57:25;;;;;;;9.43;3.50;;;-4.30;99.90;;;;;;5053103;28;20081;-70
2022/03/11 06:59:51;;;;;;;7.43;4.50;;;-4.20;99.90;;;;;;5053056;28;20424;-70
2022/03/11 07:02:17;;;;;;;9.38;3.75;;;-4.10;99.90;;;;;;5052798;28;20100;-70
2022/03/11 07:04:42;;;;;;;12.18;3.83;;;-4.00;99.90;;;;;;5054876;28;20029;-70
2022/03/11 07:07:08;;;;;;;22.65;8.48;;;-4.00;99.90;;;;;;5057489;28;20029;-70
2022/03/11 07:09:34;;;;;;;10.48;4.88;;;-3.80;99.90;;;;;;5052932;28;20029;-70
2022/03/11 07:12:02;;;;;;;9.70;4.15;;;-3.70;99.90;;;;;;5052685;28;20021;-70
2022/03/11 07:14:30;;;;;;;8.80;3.92;;;-3.70;99.90;;;;;;5052984;28;20025;-70
2022/03/11 07:16:57;;;;;;;7.10;3.80;;;-3.70;99.90;;;;;;5051657;28;20029;-70
2022/03/11 07:19:23;;;;;;;7.20;4.07;;;-3.60;99.90;;;;;;5053454;28;20025;-70
2022/03/11 07:21:48;;;;;;;7.93;3.85;;;-3.60;99.90;;;;;;5053156;28;20104;-70
2022/03/11 07:24:14;;;;;;;8.05;3.88;;;-3.50;99.90;;;;;;5053456;28;20108;-70
2022/03/11 07:26:40;;;;;;;16.10;5.55;;;-3.50;99.90;;;;;;5052987;28;20047;-70
2022/03/11 07:29:06;;;;;;;14.43;4.38;;;-3.40;99.90;;;;;;5053158;28;20021;-70
2022/03/11 07:31:32;;;;;;;12.25;4.75;;;-3.30;99.90;;;;;;5052645;28;20035;-70
2022/03/11 07:33:59;;;;;;;12.65;6.30;;;-3.20;99.90;;;;;;5053030;28;20417;-70
2022/03/11 07:36:25;;;;;;;13.20;5.30;;;-3.20;99.90;;;;;;5052714;28;20028;-70
2022/03/11 07:38:51;;;;;;;14.32;5.10;;;-3.10;99.90;;;;;;5052999;28;20036;-70
2022/03/11 07:41:18;;;;;;;9.13;4.45;;;-3.10;99.90;;;;;;5053630;28;20033;-70
2022/03/11 07:43:47;;;;;;;10.55;4.50;;;-3.00;99.90;;;;;;5054138;28;20060;-71
2022/03/11 07:46:14;;;;;;;9.30;3.63;;;-2.90;99.90;;;;;;5052835;28;20022;-70
2022/03/11 07:48:44;;;;;;;12.85;4.60;;;-2.90;99.90;;;;;;5053346;28;20071;-70
2022/03/11 07:51:10;;;;;;;9.07;4.10;;;-2.80;99.90;;;;;;5053072;28;20018;-70
2022/03/11 07:53:36;;;;;;;7.35;4.15;;;-2.70;99.90;;;;;;5052905;28;20029;-70
2022/03/11 07:56:13;;;;;;;12.60;4.70;;;-2.60;99.90;;;;;;5053060;28;20033;-70
2022/03/11 07:58:41;;;;;;;15.30;4.60;;;-2.50;99.90;;;;;;5052609;28;20123;-70
2022/03/11 08:01:12;;;;;;;13.73;4.22;;;-2.40;99.90;;;;;;5051468;28;20047;-70
2022/03/11 08:03:39;;;;;;;12.80;4.85;;;-2.30;99.90;;;;;;5052719;28;20412;-70
2022/03/11 08:06:10;;;;;;;10.65;4.28;;;-2.20;99.90;;;;;;5052752;28;20386;-70
2022/03/11 08:08:37;;;;;;;9.48;4.47;;;-2.10;99.90;;;;;;5052865;28;20035;-70
2022/03/11 08:11:06;;;;;;;12.73;4.82;;;-2.00;99.90;;;;;;5052421;28;20437;-70
2022/03/11 08:13:31;;;;;;;12.38;4.70;;;-1.90;99.90;;;;;;5054698;28;20078;-70
2022/03/11 08:15:57;;;;;;;7.80;4.30;;;-1.80;99.90;;;;;;5056302;28;20029;-70
2022/03/11 08:18:23;;;;;;;8.75;3.85;;;-1.60;99.90;;;;;;5056346;28;20025;-70
2022/03/11 08:20:49;;;;;;;11.20;4.85;;;-1.50;99.90;;;;;;5055234;28;20047;-69
2022/03/11 08:23:15;;;;;;;10.70;4.28;;;-1.40;99.90;;;;;;5065823;28;20033;-69
2022/03/11 08:25:41;;;;;;;10.70;4.20;;;-1.20;99.90;;;;;;5070911;28;20033;-70
2022/03/11 08:28:10;;;;;;;27.10;6.10;;;-1.00;99.90;;;;;;5067635;28;20031;-69
2022/03/11 08:30:37;;;;;;;14.00;4.55;;;-0.90;99.90;;;;;;5070674;28;20028;-69
2022/03/11 08:33:04;;;;;;;18.67;5.18;;;-0.80;99.90;;;;;;5073889;28;20029;-69
2022/03/11 08:35:30;;;;;;;12.18;4.82;;;-0.70;99.90;;;;;;5074838;28;20020;-69
2022/03/11 08:37:56;;;;;;;16.17;6.00;;;-0.60;99.80;;;;;;5074532;28;20384;-69
2022/03/11 08:40:23;;;;;;;13.77;4.63;;;-0.40;99.60;;;;;;5075301;28;20478;-70
2022/03/11 08:42:50;;;;;;;10.75;5.32;;;-0.30;99.30;;;;;;5075716;28;20415;-70
2022/03/11 08:45:16;;;;;;;9.65;4.90;;;-0.20;99.20;;;;;;5075844;28;20028;-70
2022/03/11 08:47:42;;;;;;;11.73;5.50;;;0.00;98.70;;;;;;5075553;28;20469;-70
2022/03/11 08:50:08;;;;;;;11.07;5.53;;;0.10;97.60;;;;;;5075376;28;20032;-70
2022/03/11 08:52:34;;;;;;;9.70;5.05;;;0.20;97.10;;;;;;5075768;28;20035;-70
2022/03/11 08:55:00;;;;;;;16.65;6.82;;;0.30;96.50;;;;;;5075407;28;20017;-70
2022/03/11 08:57:26;;;;;;;17.00;7.72;;;0.50;96.10;;;;;;5075159;28;20154;-70
2022/03/11 08:59:54;;;;;;;19.85;9.13;;;0.50;96.00;;;;;;5075088;28;20116;-70
2022/03/11 09:02:21;;;;;;;15.45;8.70;;;0.70;95.60;;;;;;5075665;28;20032;-70
2022/03/11 09:04:47;;;;;;;21.30;11.38;;;0.90;95.60;;;;;;5075775;28;20107;-70
2022/03/11 09:07:13;;;;;;;19.73;10.82;;;1.00;94.90;;;;;;5075850;28;20061;-70
2022/03/11 09:09:39;;;;;;;28.00;12.77;;;1.10;94.50;;;;;;5075505;28;20024;-70
2022/03/11 09:12:05;;;;;;;33.65;13.77;;;1.20;94.10;;;;;;5076296;28;20518;-70
2022/03/11 09:14:31;;;;;;;25.05;13.25;;;1.30;93.60;;;;;;5074983;28;20388;-70
2022/03/11 09:16:58;;;;;;;25.45;13.68;;;1.50;93.40;;;;;;5074888;28;20380;-70
2022/03/11 09:19:23;;;;;;;29.08;14.27;;;1.60;93.00;;;;;;5075095;28;20024;-70
2022/03/11 09:21:49;;;;;;;26.50;13.85;;;1.70;92.40;;;;;;5075355;28;20030;-70
2022/03/11 09:24:15;;;;;;;20.90;12.35;;;1.90;91.50;;;;;;5074998;28;20063;-70
2022/03/11 09:26:42;;;;;;;30.08;9.85;;;2.00;90.30;;;;;;5074792;28;20032;-70
2022/03/11 09:29:08;;;;;;;16.42;9.05;;;2.10;88.60;;;;;;5074779;28;20020;-70
2022/03/11 09:31:34;;;;;;;20.35;9.50;;;2.20;87.90;;;;;;5074786;28;20056;-70
2022/03/11 09:34:00;;;;;;;18.70;9.50;;;2.30;86.20;;;;;;5074393;28;20048;-70
2022/03/11 09:36:26;;;;;;;14.45;7.70;;;2.40;83.70;;;;;;5074682;28;20515;-70
2022/03/11 09:38:52;;;;;;;15.32;8.18;;;2.50;81.70;;;;;;5074426;28;20495;-70
2022/03/11 09:41:19;;;;;;;13.45;7.43;;;2.70;82.10;;;;;;5074461;28;20477;-70
2022/03/11 09:43:45;;;;;;;16.10;7.60;;;2.80;82.30;;;;;;5074342;28;20074;-70
2022/03/11 09:46:13;;;;;;;13.00;6.75;;;2.90;83.30;;;;;;5074605;28;20020;-70
2022/03/11 09:48:41;;;;;;;14.88;7.45;;;3.00;80.00;;;;;;5074650;28;20025;-70
2022/03/11 09:51:11;;;;;;;13.73;7.72;;;3.20;78.50;;;;;;5074283;28;20027;-69
2022/03/11 09:53:37;;;;;;;13.98;7.72;;;3.30;78.70;;;;;;5074531;28;20388;-69
2022/03/11 09:56:04;;;;;;;18.60;8.40;;;3.50;78.60;;;;;;5074225;28;20031;-69
2022/03/11 09:58:30;;;;;;;16.85;9.25;;;3.70;78.80;;;;;;5074090;28;20434;-69
2022/03/11 10:00:56;;;;;;;20.88;10.98;;;3.80;78.70;;;;;;5073938;28;20063;-69
2022/03/11 10:03:22;;;;;;;22.42;11.65;;;3.90;77.80;;;;;;5074159;28;20020;-69
2022/03/11 10:05:48;;;;;;;21.58;12.65;;;3.90;77.80;;;;;;5073958;28;20016;-69
2022/03/11 10:08:14;;;;;;;26.48;12.50;;;4.10;77.40;;;;;;5073858;28;20027;-69
2022/03/11 10:10:40;;;;;;;22.42;13.00;;;4.10;76.90;;;;;;5073877;28;20546;-69
2022/03/11 10:13:10;;;;;;;19.75;11.30;;;4.30;76.20;;;;;;5073978;28;20056;-69
2022/03/11 10:15:37;;;;;;;25.67;15.40;;;4.30;75.20;;;;;;5074461;28;20071;-69
2022/03/11 10:18:06;;;;;;;23.60;14.55;;;4.40;74.10;;;;;;5074304;28;20104;-69
2022/03/11 10:20:32;;;;;;;20.35;12.90;;;4.50;73.60;;;;;;5072412;28;20089;-69
2022/03/11 10:22:58;;;;;;;25.50;13.40;;;4.60;72.50;;;;;;5073824;28;20469;-69
2022/03/11 10:25:28;;;;;;;22.45;13.25;;;4.70;70.90;;;;;;5073991;28;20025;-69
2022/03/11 10:28:09;;;;;;;19.50;12.48;;;4.80;70.00;;;;;;5074156;28;20066;-69
2022/03/11 10:30:37;;;;;;;19.83;11.52;;;4.90;69.60;;;;;;5072335;28;20017;-69
2022/03/11 10:33:05;;;;;;;15.70;8.05;;;5.00;67.70;;;;;;5073829;28;20024;-69
2022/03/11 10:35:49;;;;;;;11.48;6.00;;;5.10;65.20;;;;;;5073247;28;20028;-69
2022/03/11 10:38:17;;;;;;;12.35;6.85;;;5.20;63.20;;;;;;5073696;28;20036;-69
2022/03/11 10:40:53;;;;;;;6.40;3.72;;;5.30;64.10;;;;;;5073415;28;20029;-69
2022/03/11 10:43:21;;;;;;;6.78;2.65;;;5.40;62.20;;;;;;5073578;28;20104;-69
2022/03/11 10:46:02;;;;;;;8.57;3.88;;;5.60;62.50;;;;;;5072846;28;20047;-70
2022/03/11 10:48:51;;;;;;;5.93;3.33;;;5.70;60.90;;;;;;5071449;28;20020;-69
2022/03/11 10:51:32;;;;;;;8.60;3.97;;;5.80;59.10;;;;;;5073548;28;20029;-70
2022/03/11 10:54:03;;;;;;;5.75;3.30;;;5.90;59.80;;;;;;5072841;28;20044;-70
2022/03/11 10:56:39;;;;;;;7.18;4.13;;;6.00;59.80;;;;;;5073929;28;20051;-68
2022/03/11 10:59:27;;;;;;;7.28;4.10;;;6.10;60.00;;;;;;5073482;28;20055;-68
2022/03/11 11:01:53;;;;;;;5.70;3.35;;;6.20;58.90;;;;;;5073595;28;20098;-67
2022/03/11 11:04:19;;;;;;;7.90;3.92;;;6.30;58.50;;;;;;5071890;28;20020;-68
2022/03/11 11:06:46;;;;;;;7.35;3.45;;;6.30;57.60;;;;;;5073459;28;20020;-68
2022/03/11 11:09:13;;;;;;;7.28;4.43;;;6.30;58.00;;;;;;5071944;28;20051;-68
2022/03/11 11:11:39;;;;;;;11.52;5.35;;;6.50;57.80;;;;;;5073176;28;20024;-68
2022/03/11 11:14:07;;;;;;;8.93;4.78;;;6.50;57.90;;;;;;5073387;28;20040;-68
2022/03/11 11:16:55;;;;;;;7.10;4.43;;;6.60;58.20;;;;;;5073293;28;20025;-68
2022/03/11 11:19:23;;;;;;;7.10;4.10;;;6.70;56.90;;;;;;5071844;28;20035;-68
2022/03/11 11:21:50;;;;;;;15.80;4.97;;;6.70;56.30;;;;;;5072942;28;20024;-68
2022/03/11 11:24:19;;;;;;;9.65;5.10;;;6.80;55.60;;;;;;5072861;28;20029;-68
2022/03/11 11:26:50;;;;;;;8.20;4.30;;;6.80;55.90;;;;;;5073214;28;20025;-69
2022/03/11 11:29:18;;;;;;;;;;;6.90;55.40;;;;;;5073888;28;20095;-69
2022/03/11 11:31:45;;;;;;;8.30;4.15;;;7.00;55.80;;;;;;5072915;28;20040;-69
2022/03/11 11:34:25;;;;;;;11.07;4.43;;;7.10;55.90;;;;;;5071662;28;20052;-69
2022/03/11 11:36:51;;;;;;;8.32;4.63;;;7.20;55.50;;;;;;5073190;28;20492;-69
2022/03/11 11:39:16;;;;;;;7.70;4.53;;;7.20;55.00;;;;;;5071388;28;20066;-69
2022/03/11 11:41:54;;;;;;;6.65;3.88;;;7.40;55.10;;;;;;5072619;28;20021;-69
2022/03/11 11:44:31;;;;;;;6.47;3.78;;;7.40;55.20;;;;;;5071430;28;20032;-69
2022/03/11 11:47:13;;;;;;;7.88;4.53;;;7.50;54.80;;;;;;5073052;28;20054;-69
2022/03/11 11:49:42;;;;;;;7.65;3.78;;;7.70;54.70;;;;;;5076751;28;20012;-69
2022/03/11 11:52:11;;;;;;;7.38;3.95;;;7.70;54.10;;;;;;5075637;28;20017;-69
2022/03/11 11:54:39;;;;;;;5.18;3.58;;;7.80;55.00;;;;;;5077430;28;20029;-69
2022/03/11 11:57:07;;;;;;;7.30;4.53;;;7.90;54.80;;;;;;5077030;28;20038;-69
2022/03/11 11:59:38;;;;;;;7.70;4.30;;;8.00;55.00;;;;;;5076846;28;20025;-69
2022/03/11 12:02:36;;;;;;;7.50;4.60;;;8.00;55.30;;;;;;5077478;28;20029;-69
2022/03/11 12:05:41;;;;;;;7.07;3.75;;;8.10;55.20;;;;;;5064409;28;20399;-69
2022/03/11 12:08:07;;;;;;;5.95;3.63;;;8.20;54.90;;;;;;5076305;28;20024;-69
2022/03/11 12:10:33;;;;;;;6.63;4.03;;;8.30;54.60;;;;;;5074966;28;20542;-69
2022/03/11 12:13:00;;;;;;;13.05;4.00;;;8.40;54.60;;;;;;5076222;28;20029;-69
2022/03/11 12:15:27;;;;;;;8.25;3.80;;;8.40;53.60;;;;;;5076228;28;20071;-69
2022/03/11 12:17:59;;;;;;;7.75;3.95;;;8.50;52.60;;;;;;5076475;28;20024;-69
2022/03/11 12:20:32;;;;;;;5.95;3.70;;;8.60;53.20;;;;;;5074802;28;20029;-69
2022/03/11 12:23:05;;;;;;;6.70;3.50;;;8.70;52.90;;;;;;5076059;28;20394;-68
2022/03/11 12:26:04;;;;;;;7.07;3.97;;;8.80;52.50;;;;;;5076303;28;20024;-68
2022/03/11 12:28:33;;;;;;;7.47;3.67;;;8.90;52.10;;;;;;5063666;28;20041;-68
2022/03/11 12:31:02;;;;;;;5.80;3.53;;;9.10;52.20;;;;;;5055873;28;20016;-68
2022/03/11 12:33:46;;;;;;;4.93;3.20;;;9.20;53.10;;;;;;5055859;28;20048;-69
2022/03/11 12:36:22;;;;;;;6.65;2.67;;;9.30;50.60;;;;;;5056083;28;20025;-70
2022/03/11 12:38:49;;;;;;;11.85;2.80;;;9.40;46.60;;;;;;5056022;28;20525;-69
2022/03/11 12:41:27;;;;;;;4.85;2.72;;;9.60;47.50;;;;;;5055596;28;20037;-68
2022/03/11 12:43:57;;;;;;;4.65;2.35;;;9.80;46.40;;;;;;5055768;28;20477;-68
2022/03/11 12:46:23;;;;;;;2.58;1.60;;;9.90;45.10;;;;;;5055604;28;20023;-67
2022/03/11 12:48:49;;;;;;;3.65;1.65;;;10.00;43.10;;;;;;5055001;28;20528;-68